NEODyS-2

Near Earth Objects - Dynamic Site
NEODyS ∴ Observatories ∴ Site 691 ∴ Obs & residuals
Contact »
691  ▹ 
OBSERVATIONS AND RESIDUALS

691-Steward Observatory, Kitt Peak-Spacewatch

Detections | Residuals | Detections & Residuals

[1-200] [201-400] [401-600] [601-800] [801-1000] [1001-1200] [1201-1400] [1401-1600] [1601-1800] [1801-2000] [2001-2200] [2201-2400] [2401-2600] [2601-2800] [2801-3000] [3001-3200] [3201-3400] [3401-3600] [3601-3800] [3801-4000] [4001-4200] [4201-4400] [4401-4600] [4601-4800] [4801-5000] [5001-5200] [5201-5400] [5401-5600] [5601-5800] [5801-6000] [6001-6200] [6201-6400] [6401-6600] [6601-6800] [6801-7000] [7001-7200] [7201-7400] [7401-7600] [7601-7800] [7801-8000] [8001-8200] [8201-8400] [8401-8600] [8601-8800] [8801-9000] [9001-9200] [9201-9400] [9401-9600] [9601-9800] [9801-10000] [10001-10200] [10201-10400] [10401-10600] [10601-10800] [10801-11000] [11001-11200] [11201-11400] [11401-11600] [11601-11800] [11801-12000] [12001-12200] [12201-12400] [12401-12600] [12601-12800] [12801-13000] [13001-13200] [13201-13400] [13401-13600] [13601-13800] [13801-14000] [14001-14200] [14201-14400] [14401-14600] [14601-14800] [14801-15000] [15001-15200] [15201-15400] [15401-15600] [15601-15800] [15801-16000] [16001-16200] [16201-16400] [16401-16600] [16601-16800] [16801-17000] [17001-17200] [17201-17400] [17401-17600] [17601-17800] [17801-18000] [18001-18200] [18201-18400] [18401-18600] [18601-18800] [18801-19000] [19001-19200] [19201-19400] [19401-19600] [19601-19800] [19801-20000] [20001-20200] [20201-20400] [20401-20600] [20601-20800] [20801-21000] [21001-21200] [21201-21400] [21401-21600] [21601-21800] [21801-22000] [22001-22200] [22201-22400] [22401-22600] [22601-22800] [22801-23000] [23001-23200] [23201-23400] [23401-23600] [23601-23800] [23801-24000] [24001-24200] [24201-24400] [24401-24600] [24601-24800] [24801-25000] [25001-25200] [25201-25400] [25401-25600] [25601-25800] [25801-26000] [26001-26200] [26201-26400] [26401-26600] [26601-26800] [26801-27000] [27001-27200] [27201-27400] [27401-27600] [27601-27800] [27801-28000] [28001-28200] [28201-28400] [28401-28600] [28601-28800] [28801-29000] [29001-29200] [29201-29400] [29401-29600] [29601-29800] [29801-30000] [30001-30200] [30201-30400] [30401-30600] [30601-30800] [30801-31000] [31001-31200] [31201-31400] [31401-31600] [31601-31800] [31801-32000] [32001-32200] [32201-32400] [32401-32600] [32601-32800] [32801-33000] [33001-33200] [33201-33400] [33401-33600] [33601-33800] [33801-34000] [34001-34200] [34201-34400] [34401-34600] [34601-34800] [34801-35000] [35001-35200] [35201-35400] [35401-35600] [35601-35800] [35801-36000] [36001-36200] [36201-36400] [36401-36600] [36601-36800] [36801-37000] [37001-37200] [37201-37400] [37401-37600] [37601-37800] [37801-38000] [38001-38200] [38201-38400] [38401-38600] [38601-38800] [38801-39000] [39001-39200] [39201-39400] [39401-39600] [39601-39800] [39801-40000] [40001-40200] [40201-40400] [40401-40600] [40601-40800] [40801-41000] [41001-41200] [41201-41400] [41401-41600] [41601-41800] [41801-42000] [42001-42200] [42201-42400] [42401-42600] [42601-42800] [42801-43000] [43001-43200] [43201-43400] [43401-43600] [43601-43800] [43801-44000] [44001-44200] [44201-44400] [44401-44600] [44601-44800] [44801-45000] [45001-45200] [45201-45400] [45401-45600] [45601-45800] [45801-46000] [46001-46200] [46201-46400] [46401-46600] [46601-46800] [46801-47000] [47001-47200] [47201-47400] [47401-47600] [47601-47800] [47801-48000] [48001-48200] [48201-48400] [48401-48600] [48601-48800] [48801-49000] [49001-49200] [49201-49400] [49401-49600] [49601-49800] [49801-50000] [50001-50200] [50201-50388]

Designation T Tech N Date Right Ascension Declination Apparent Magnitude Star Catalog Site code χ Used A Used M
yr-mo-day precision hr:min:sec precision rms F bias residual deg min sec precision rms F bias residual mag/col rms residual
2010AJ O C 2010-01-10.26481 1.000E-05 08:52:26.400 1.500E-01 0.500 F 0.075 0.297 +14° 06' 03.30" 1.000E-01 0.500 F 0.141 -0.065 o 691 0.62 Yes No
1999XA143 O C 2010-01-10.28332 1.000E-05 09:30:05.550 1.500E-01 0.500 F 0.133 -0.493 +19° 28' 11.90" 1.000E-01 0.500 F 0.245 0.210 o 691 1.07 Yes No
1999XA143 O C 2010-01-10.30105 1.000E-05 09:30:06.030 1.500E-01 0.500 F 0.133 -0.397 +19° 29' 31.50" 1.000E-01 0.500 F 0.245 -0.043 o 691 0.80 Yes No
1999XA143 O C 2010-01-10.31877 1.000E-05 09:30:06.500 1.500E-01 0.500 F 0.133 -0.308 +19° 30' 51.40" 1.000E-01 0.500 F 0.245 0.020 o 691 0.62 Yes No
2002XA40 O C H 2010-01-10.34220 1.000E-05 09:49:34.360 1.500E-01 0.500 F 0.118 -0.132 +11° 46' 09.60" 1.000E-01 0.500 F 0.097 -0.033 20.8 V 0.70 0.09 o 691 0.27 Yes Yes
2002XA40 O C H 2010-01-10.35989 1.000E-05 09:49:33.340 1.500E-01 0.500 F 0.118 0.199 +11° 46' 12.20" 1.000E-01 0.500 F 0.097 -0.529 o 691 1.13 Yes No
2002XA40 O C H 2010-01-10.37759 1.000E-05 09:49:32.280 1.500E-01 0.500 F 0.118 -0.020 +11° 46' 15.60" 1.000E-01 0.500 F 0.097 -0.217 o 691 0.44 Yes No
2006SU131 O C H 2010-01-11.17187 1.000E-05 07:56:11.580 1.500E-01 0.500 F -0.030 -0.055 +22° 44' 36.80" 1.000E-01 0.500 F 0.218 -0.814 21.1 V 0.70 -0.45 o 691 1.64 Yes Yes
2008AB31 O C 2010-01-11.32826 1.000E-05 09:48:50.870 1.500E-01 0.500 F 0.137 -0.359 +18° 56' 00.20" 1.000E-01 0.500 F 0.373 -0.204 20.0 V 0.70 0.08 o 691 0.83 Yes Yes
2008AB31 O C 2010-01-11.34599 1.000E-05 09:48:48.740 1.500E-01 0.500 F 0.137 -0.439 +18° 55' 06.10" 1.000E-01 0.500 F 0.373 -0.063 20.1 V 0.70 0.18 o 691 0.89 Yes Yes
2008AB31 O C 2010-01-11.36374 1.000E-05 09:48:46.600 1.500E-01 0.500 F 0.137 -0.504 +18° 54' 11.30" 1.000E-01 0.500 F 0.373 -0.455 19.8 V 0.70 -0.12 o 691 1.37 Yes Yes
2000NF11 O C 2010-01-11.38166 1.000E-05 09:59:09.480 1.500E-01 0.500 F 0.070 -0.187 +12° 41' 25.70" 1.000E-01 0.500 F 0.222 -0.089 20.0 V 0.70 0.29 o 691 0.42 Yes Yes
1997YM3 O C 2010-01-11.39431 1.000E-05 10:01:20.420 1.500E-01 0.500 F 0.105 -1.053 +10° 38' 30.40" 1.000E-01 0.500 F 0.077 -0.005 21.7 V 0.70 0.42 o 691 2.15 Yes Yes
2000NF11 O C 2010-01-11.39942 1.000E-05 09:59:09.480 1.500E-01 0.500 F 0.070 -0.292 +12° 41' 48.80" 1.000E-01 0.500 F 0.222 0.002 20.0 V 0.70 0.29 o 691 0.59 Yes Yes
1997YM3 O C 2010-01-11.41203 1.000E-05 10:01:19.510 1.500E-01 0.500 F 0.105 -0.208 +10° 38' 33.90" 1.000E-01 0.500 F 0.077 -0.007 20.9 V 0.70 -0.38 o 691 0.42 Yes Yes
2000NF11 O C 2010-01-11.41714 1.000E-05 09:59:09.480 1.500E-01 0.500 F 0.070 -0.364 +12° 42' 11.70" 1.000E-01 0.500 F 0.222 -0.035 20.1 V 0.70 0.39 o 691 0.74 Yes Yes
1997YM3 O C 2010-01-11.42978 1.000E-05 10:01:18.520 1.500E-01 0.500 F 0.105 -0.508 +10° 38' 37.20" 1.000E-01 0.500 F 0.077 -0.207 21.5 V 0.70 0.22 o 691 1.11 Yes Yes
2003BA21 O C H 2010-01-11.43986 1.000E-05 10:22:41.720 1.500E-01 0.500 F 0.199 -0.370 +08° 20' 24.00" 1.000E-01 0.500 F 0.138 -0.055 21.0 V 0.70 0.03 o 691 0.75 Yes Yes
2003BA21 O C H 2010-01-11.47519 1.000E-05 10:22:35.350 1.500E-01 0.500 F 0.199 0.300 +08° 20' 36.50" 1.000E-01 0.500 F 0.138 0.430 21.1 V 0.70 0.13 o 691 1.05 Yes Yes
2007DB56 O C t 2010-01-11.50146 1.000E-05 13:20:04.280 1.500E-01 0.500 F 0.165 0.238 -05° 50' 46.90" 1.000E-01 0.500 F -0.009 -0.709 21.3 V 0.70 -0.35 o 691 1.50 Yes Yes
2007DB56 O C t 2010-01-11.53878 1.000E-05 13:20:08.200 1.500E-01 0.500 F 0.165 0.842 -05° 51' 26.00" 1.000E-01 0.500 F -0.009 -0.244 o 691 1.76 Yes No
2000OG8 O C H 2010-01-12.16238 1.000E-05 08:15:54.050 1.500E-01 0.500 F -0.025 0.307 +19° 30' 39.80" 1.000E-01 0.500 F 0.268 -0.038 20.7 V 0.70 0.23 o 691 0.63 Yes Yes
2000OG8 O C H 2010-01-12.18007 1.000E-05 08:15:52.590 1.500E-01 0.500 F -0.025 0.499 +19° 30' 41.80" 1.000E-01 0.500 F 0.268 -0.341 21.0 V 0.70 0.53 o 691 1.23 Yes Yes
2000OG8 O C H 2010-01-12.19775 1.000E-05 08:15:51.080 1.500E-01 0.500 F -0.025 0.031 +19° 30' 44.30" 1.000E-01 0.500 F 0.268 -0.131 20.9 V 0.70 0.43 o 691 0.27 Yes Yes
2004OT11 O C H 2010-01-12.21912 1.000E-05 08:49:07.410 1.500E-01 0.500 F 0.122 -0.281 +12° 44' 29.20" 1.000E-01 0.500 F 0.137 -0.043 20.8 V 0.70 0.09 o 691 0.57 Yes Yes
1998KU2 O C H 2010-01-12.23169 1.000E-05 09:00:21.780 1.500E-01 0.500 F 0.063 -0.359 +10° 02' 06.80" 1.000E-01 0.500 F 0.145 1.239 o 691 2.58 Yes No
2004OT11 O C H 2010-01-12.23679 1.000E-05 08:49:05.980 1.500E-01 0.500 F 0.122 -0.771 +12° 44' 26.70" 1.000E-01 0.500 F 0.137 -0.044 20.9 V 0.70 0.19 o 691 1.55 Yes Yes
1998KU2 O C H 2010-01-12.24942 1.000E-05 09:00:20.780 1.500E-01 0.500 F 0.063 -0.030 +10° 02' 08.00" 1.000E-01 0.500 F 0.145 -1.175 21.3 V 0.70 -0.25 o 691 2.35 Yes Yes
2004OT11 O C H 2010-01-12.25452 1.000E-05 08:49:04.600 1.500E-01 0.500 F 0.122 -0.407 +12° 44' 24.10" 1.000E-01 0.500 F 0.137 -0.129 20.6 V 0.70 -0.11 o 691 0.86 Yes Yes
1998KU2 O C H 2010-01-12.26709 1.000E-05 09:00:19.720 1.500E-01 0.500 F 0.063 -0.608 +10° 02' 13.20" 1.000E-01 0.500 F 0.145 0.427 21.0 V 0.70 -0.55 o 691 1.48 Yes Yes
1996AS1 O C H 2010-01-12.35932 1.000E-05 09:41:21.710 1.500E-01 0.500 F 0.171 -0.785 +07° 23' 17.10" 1.000E-01 0.500 F 0.167 -0.038 21.2 V 0.70 -0.46 o 691 1.58 Yes Yes
1996AS1 O C H 2010-01-12.37697 1.000E-05 09:41:20.610 1.500E-01 0.500 F 0.171 -0.688 +07° 23' 13.80" 1.000E-01 0.500 F 0.167 -0.685 21.2 V 0.70 -0.46 o 691 1.95 Yes Yes
2007DB56 O C H 2010-01-12.51342 1.000E-05 13:21:51.650 1.500E-01 0.500 F 0.165 -0.659 -06° 08' 33.80" 1.000E-01 0.500 F -0.009 -0.170 o 691 1.37 Yes No
2007DB56 O C H 2010-01-12.53207 1.000E-05 13:21:53.630 1.500E-01 0.500 F 0.165 0.430 -06° 08' 53.20" 1.000E-01 0.500 F -0.009 0.038 o 691 0.87 Yes No
2009WK6 O C H 2010-01-14.08799 1.000E-05 05:36:22.270 1.500E-01 0.500 F -0.071 -0.171 +18° 32' 03.40" 1.000E-01 0.500 F 0.135 -1.052 o 691 2.19 Yes No
2009WK6 O C H 2010-01-14.10122 1.000E-05 05:36:21.710 1.500E-01 0.500 F -0.071 0.457 +18° 32' 02.80" 1.000E-01 0.500 F 0.135 -0.551 o 691 1.45 Yes No
2009WK6 O C H 2010-01-14.11447 1.000E-05 05:36:21.070 1.500E-01 0.500 F -0.071 -0.012 +18° 32' 01.30" 1.000E-01 0.500 F 0.135 -0.939 o 691 1.92 Yes No
2010AB3 O C t 2010-01-14.13421 1.000E-05 05:45:48.790 1.500E-01 0.500 F -0.092 0.390 +25° 16' 31.10" 1.000E-01 0.500 F 0.146 0.010 21.2 V 0.70 0.92 o 691 0.92 Yes Yes
2010AB3 O C t 2010-01-14.14740 1.000E-05 05:45:55.220 1.500E-01 0.500 F -0.087 0.153 +25° 16' 16.10" 1.000E-01 0.500 F 0.177 -0.542 21.3 V 0.70 1.01 o 691 1.32 Yes Yes
2008BS2 O C H 2010-01-14.17780 1.000E-05 08:04:50.620 1.500E-01 0.500 F 0.003 -0.320 +27° 00' 38.80" 1.000E-01 0.500 F 0.234 0.611 20.7 V 0.70 -0.24 o 691 1.39 Yes Yes
1993DQ1 O C 2010-01-14.19040 1.000E-05 08:12:44.880 1.500E-01 0.500 F -0.017 -0.520 +24° 03' 49.90" 1.000E-01 0.500 F 0.163 0.126 o 691 1.07 Yes No
2008BS2 O C H 2010-01-14.19550 1.000E-05 08:04:48.620 1.500E-01 0.500 F 0.003 -0.403 +27° 00' 39.80" 1.000E-01 0.500 F 0.234 1.000 20.9 V 0.70 -0.04 o 691 2.17 Yes Yes
1993DQ1 O C 2010-01-14.20810 1.000E-05 08:12:43.520 1.500E-01 0.500 F -0.017 -0.409 +24° 03' 52.40" 1.000E-01 0.500 F 0.163 0.287 o 691 1.00 Yes No
2008BS2 O C H 2010-01-14.21319 1.000E-05 08:04:46.650 1.500E-01 0.500 F 0.003 -0.046 +27° 00' 39.70" 1.000E-01 0.500 F 0.234 0.312 21.0 V 0.70 0.07 o 691 0.63 Yes Yes
1993DQ1 O C 2010-01-14.22580 1.000E-05 08:12:42.200 1.500E-01 0.500 F -0.017 0.284 +24° 03' 54.40" 1.000E-01 0.500 F 0.163 -0.038 o 691 0.57 Yes No
2003QH5 O C H 2010-01-15.19635 1.000E-05 08:08:58.080 1.500E-01 0.500 F 0.016 -0.628 +23° 07' 15.90" 1.000E-01 0.500 F 0.204 -0.812 o 691 2.07 Yes No
2009FF19 O C H 2010-01-15.20145 1.000E-05 08:00:25.790 1.500E-01 0.500 F -0.054 -0.082 +21° 23' 19.50" 1.000E-01 0.500 F 0.221 -0.468 o 691 0.96 Yes No
1998QQ63 O C H 2010-01-15.20392 1.000E-05 08:08:23.490 1.500E-01 0.500 F -0.010 -0.222 +20° 55' 23.50" 1.000E-01 0.500 F 0.229 -0.186 21.2 V 0.70 0.42 o 691 0.59 Yes Yes
2003QH5 O C t 2010-01-15.21407 1.000E-05 08:08:54.880 1.500E-01 0.500 F 0.016 0.298 +23° 06' 56.80" 1.000E-01 0.500 F 0.204 -0.315 20.1 V 0.70 0.30 o 691 0.89 Yes Yes
2009FF19 O C H 2010-01-15.21917 1.000E-05 08:00:22.780 1.500E-01 0.500 F -0.054 0.242 +21° 23' 28.70" 1.000E-01 0.500 F 0.221 -0.481 o 691 1.09 Yes No
2003QH5 O C t 2010-01-15.23179 1.000E-05 08:08:51.590 1.500E-01 0.500 F 0.016 0.123 +23° 06' 37.40" 1.000E-01 0.500 F 0.204 -0.051 20.0 V 0.70 0.20 o 691 0.27 Yes Yes
2009FF19 O C H 2010-01-15.23689 1.000E-05 08:00:19.770 1.500E-01 0.500 F -0.054 0.665 +21° 23' 37.50" 1.000E-01 0.500 F 0.221 -0.841 o 691 2.18 Yes No
2003CY18 O C H 2010-01-16.08530 1.000E-05 05:20:27.230 1.500E-01 0.500 F -0.111 -0.393 +19° 13' 29.60" 1.000E-01 0.500 F 0.139 0.343 21.1 V 0.70 0.11 o 691 1.04 Yes Yes
2003CY18 O C H 2010-01-16.10205 1.000E-05 05:20:26.230 1.500E-01 0.500 F -0.111 0.339 +19° 13' 32.80" 1.000E-01 0.500 F 0.139 -0.477 21.4 V 0.70 0.41 o 691 1.17 Yes Yes
2004OT11 O C H 2010-01-16.23959 1.000E-05 08:43:41.230 1.500E-01 0.500 F 0.104 -0.738 +12° 35' 04.00" 1.000E-01 0.500 F 0.083 0.022 20.8 V 0.70 0.25 o 691 1.49 Yes Yes
2000NF11 O C H 2010-01-16.41527 1.000E-05 09:59:01.980 1.500E-01 0.500 F 0.065 0.315 +14° 40' 25.60" 1.000E-01 0.500 F 0.238 0.313 21.4 V 0.70 1.95 o 691 0.90 Yes Yes
2005JF21 O C H 2010-01-17.28839 1.000E-05 09:21:52.410 1.500E-01 0.500 F 0.015 0.819 +15° 08' 43.20" 1.000E-01 0.500 F 0.265 -0.819 21.7 V 0.70 -0.10 o 691 2.32 Yes Yes
2003BA21 O C H 2010-01-17.35368 1.000E-05 10:04:02.210 1.500E-01 0.500 F 0.068 -0.518 +08° 57' 47.80" 1.000E-01 0.500 F 0.049 -0.044 21.4 V 0.70 0.60 o 691 1.04 Yes Yes
1996DH O C H 2010-01-17.36366 1.000E-05 10:14:18.190 1.500E-01 0.500 F 0.183 -0.495 +06° 53' 27.10" 1.000E-01 0.500 F 0.089 0.002 o 691 0.99 Yes No
1996DH O C H 2010-01-17.38128 1.000E-05 10:14:17.020 1.500E-01 0.500 F 0.183 -0.176 +06° 53' 21.50" 1.000E-01 0.500 F 0.089 0.348 o 691 0.78 Yes No
1996DH O C H 2010-01-17.39889 1.000E-05 10:14:15.810 1.500E-01 0.500 F 0.183 -0.434 +06° 53' 15.20" 1.000E-01 0.500 F 0.089 -0.002 o 691 0.87 Yes No
Ivar O C 2010-02-05.40968 1.000E-05 10:39:42.660 1.500E-01 0.500 F -0.008 -0.274 +12° 28' 06.70" 1.000E-01 0.500 F 0.134 -0.018 o 691 0.55 Yes No
2004BV102 O C 2010-02-05.41215 1.000E-05 10:44:27.050 1.500E-01 0.500 F 0.081 -0.138 +11° 39' 53.00" 1.000E-01 0.500 F 0.147 0.048 o 691 0.29 Yes No
Ivar O C 2010-02-05.42735 1.000E-05 10:39:41.600 1.500E-01 0.500 F -0.008 -0.273 +12° 28' 17.20" 1.000E-01 0.500 F 0.134 0.058 o 691 0.56 Yes No
2004BV102 O C 2010-02-05.42983 1.000E-05 10:44:24.660 1.500E-01 0.500 F 0.081 -0.494 +11° 40' 03.40" 1.000E-01 0.500 F 0.147 -0.093 o 691 1.01 Yes No
Ivar O C 2010-02-05.44501 1.000E-05 10:39:40.550 1.500E-01 0.500 F -0.008 -0.145 +12° 28' 27.50" 1.000E-01 0.500 F 0.134 -0.049 o 691 0.31 Yes No
2004BV102 O C 2010-02-05.44748 1.000E-05 10:44:22.160 1.500E-01 0.500 F 0.081 -2.548 +11° 40' 14.40" 1.000E-01 0.500 F 0.147 0.401 o 691 5.15 No No
Ivar O C 2010-02-09.20370 1.000E-05 10:35:52.290 1.500E-01 0.500 F 0.049 -0.377 +13° 06' 25.30" 1.000E-01 0.500 F 0.123 -0.094 15.9 V 0.70 -0.20 o 691 0.78 Yes Yes
2004BV102 O C 2010-02-09.20370 1.000E-05 10:36:05.570 1.500E-01 0.500 F 0.049 -0.158 +12° 17' 27.70" 1.000E-01 0.500 F 0.123 0.163 19.9 V 0.70 0.27 o 691 0.46 Yes Yes
Ivar O C 2010-02-09.22140 1.000E-05 10:35:51.150 1.500E-01 0.500 F 0.049 -0.240 +13° 06' 36.40" 1.000E-01 0.500 F 0.123 -0.060 15.9 V 0.70 -0.20 o 691 0.49 Yes Yes
2004BV102 O C 2010-02-09.22140 1.000E-05 10:36:03.170 1.500E-01 0.500 F 0.049 -0.193 +12° 17' 38.10" 1.000E-01 0.500 F 0.123 0.002 19.8 V 0.70 0.17 o 691 0.39 Yes Yes
Ivar O C 2010-02-09.23908 1.000E-05 10:35:49.990 1.500E-01 0.500 F 0.049 -0.357 +13° 06' 47.50" 1.000E-01 0.500 F 0.123 -0.005 16.0 V 0.70 -0.10 o 691 0.71 Yes Yes
2004BV102 O C 2010-02-09.23908 1.000E-05 10:36:00.760 1.500E-01 0.500 F 0.049 -0.341 +12° 17' 48.70" 1.000E-01 0.500 F 0.123 0.066 19.7 V 0.70 0.07 o 691 0.70 Yes Yes
2001KP41 O C 2010-02-09.25597 1.000E-05 11:15:50.290 1.500E-01 0.500 F 0.232 -0.537 +08° 19' 48.90" 1.000E-01 0.500 F 0.070 0.142 20.9 V 0.70 0.23 o 691 1.11 Yes Yes
2001KP41 O C 2010-02-09.27357 1.000E-05 11:15:49.590 1.500E-01 0.500 F 0.232 -1.050 +08° 19' 56.20" 1.000E-01 0.500 F 0.070 0.678 20.4 V 0.70 -0.27 o 691 2.50 Yes Yes
2001KP41 O C 2010-02-09.29117 1.000E-05 11:15:48.970 1.500E-01 0.500 F 0.232 -0.347 +08° 20' 02.20" 1.000E-01 0.500 F 0.070 -0.085 20.6 V 0.70 -0.07 o 691 0.72 Yes Yes
1994CN2 O C H 2010-02-09.43683 1.000E-05 12:29:11.240 1.500E-01 0.500 F 0.283 -1.616 -00° 51' 44.80" 1.000E-01 0.500 F 0.179 -0.092 20.8 V 0.70 0.63 o 691 3.24 No Yes
1996HW1 O C 2010-02-09.44445 1.000E-05 12:15:40.450 1.500E-01 0.500 F 0.233 -0.901 -02° 59' 14.20" 1.000E-01 0.500 F 0.064 -1.083 20.2 V 0.70 0.14 o 691 2.82 Yes Yes
2009UN3 O C t 2010-02-09.44691 1.000E-05 12:28:08.240 1.500E-01 0.500 F 0.031 0.000 -04° 12' 36.40" 1.000E-01 0.500 F 0.173 -0.334 o 691 0.69 Yes No
1994CN2 O C H 2010-02-09.45444 1.000E-05 12:29:10.760 1.500E-01 0.500 F 0.283 -0.800 -00° 51' 40.50" 1.000E-01 0.500 F 0.179 -0.241 20.8 V 0.70 0.63 o 691 1.67 Yes Yes
1996HW1 O C 2010-02-09.46206 1.000E-05 12:15:39.900 1.500E-01 0.500 F 0.233 -1.243 -02° 59' 08.60" 1.000E-01 0.500 F 0.064 -0.313 20.2 V 0.70 0.14 o 691 2.57 Yes Yes
2009UN3 O C t 2010-02-09.46452 1.000E-05 12:28:28.240 1.500E-01 0.500 F 0.031 0.766 -03° 51' 44.90" 1.000E-01 0.500 F 0.173 0.333 o 691 1.73 Yes No
1994CN2 O C H 2010-02-09.47205 1.000E-05 12:29:10.240 1.500E-01 0.500 F 0.283 -0.577 -00° 51' 36.10" 1.000E-01 0.500 F 0.179 -0.295 o 691 1.30 Yes No
1996HW1 O C 2010-02-09.47966 1.000E-05 12:15:39.390 1.500E-01 0.500 F 0.233 -0.991 -02° 59' 03.70" 1.000E-01 0.500 F 0.064 -0.247 20.2 V 0.70 0.14 o 691 2.04 Yes Yes
2009UN3 O C t 2010-02-09.48214 1.000E-05 12:28:48.130 1.500E-01 0.500 F 0.155 -0.192 -03° 30' 55.70" 1.000E-01 0.500 F 0.179 -1.040 o 691 2.18 Yes No
2002PG43 O C H 2010-02-10.17336 1.000E-05 09:35:06.400 1.500E-01 0.500 F 0.104 0.228 +19° 31' 36.50" 1.000E-01 0.500 F 0.353 -0.626 o 691 1.34 Yes No
2002PG43 O C H 2010-02-10.19106 1.000E-05 09:35:05.080 1.500E-01 0.500 F 0.104 0.137 +19° 31' 39.50" 1.000E-01 0.500 F 0.353 -1.782 21.6 V 0.70 -0.33 o 691 3.56 No Yes
2005ED318 O C H 2010-02-10.28458 1.000E-05 11:16:30.900 1.500E-01 0.500 F 0.181 -0.390 +10° 57' 29.70" 1.000E-01 0.500 F 0.074 0.247 21.2 V 0.70 -0.26 o 691 0.93 Yes Yes
2005ED318 O C H 2010-02-10.30229 1.000E-05 11:16:30.570 1.500E-01 0.500 F 0.181 -0.239 +10° 57' 37.40" 1.000E-01 0.500 F 0.074 -0.276 21.4 V 0.70 -0.06 o 691 0.73 Yes Yes
2005ED318 O C H 2010-02-10.31996 1.000E-05 11:16:30.240 1.500E-01 0.500 F 0.181 -0.004 +10° 57' 46.30" 1.000E-01 0.500 F 0.074 0.439 21.2 V 0.70 -0.26 o 691 0.88 Yes Yes
2006PA1 O C H 2010-02-10.35238 1.000E-05 11:31:13.300 1.500E-01 0.500 F 0.118 -0.690 +01° 51' 00.30" 1.000E-01 0.500 F 0.155 -0.205 21.3 V 0.70 0.11 o 691 1.47 Yes Yes
2006PA1 O C H 2010-02-10.37345 1.000E-05 11:31:11.330 1.500E-01 0.500 F 0.118 1.186 +01° 51' 10.80" 1.000E-01 0.500 F 0.155 0.645 o 691 2.74 Yes No
1994CN2 O C 2010-02-13.42483 1.000E-05 12:27:01.360 1.500E-01 0.500 F 0.283 -0.493 -00° 33' 03.30" 1.000E-01 0.500 F 0.179 -0.091 20.3 V 0.70 0.24 o 691 1.00 Yes Yes
1996HW1 O C 2010-02-13.43245 1.000E-05 12:13:35.490 1.500E-01 0.500 F 0.209 0.401 -02° 39' 35.10" 1.000E-01 0.500 F 0.107 -0.094 20.5 V 0.70 0.52 o 691 0.82 Yes Yes
1994CN2 O C 2010-02-13.44243 1.000E-05 12:27:00.690 1.500E-01 0.500 F 0.283 -0.136 -00° 32' 57.50" 1.000E-01 0.500 F 0.179 0.254 20.0 V 0.70 -0.06 o 691 0.58 Yes Yes
1996HW1 O C 2010-02-13.45005 1.000E-05 12:13:34.800 1.500E-01 0.500 F 0.209 -0.534 -02° 39' 29.70" 1.000E-01 0.500 F 0.107 -0.268 20.3 V 0.70 0.32 o 691 1.20 Yes Yes
1994CN2 O C 2010-02-13.46003 1.000E-05 12:27:00.000 1.500E-01 0.500 F 0.283 -0.072 -00° 32' 52.30" 1.000E-01 0.500 F 0.179 -0.007 19.9 V 0.70 -0.16 o 691 0.15 Yes Yes
1996HW1 O C 2010-02-13.46765 1.000E-05 12:13:34.180 1.500E-01 0.500 F 0.209 -0.421 -02° 39' 24.00" 1.000E-01 0.500 F 0.107 -0.148 20.2 V 0.70 0.22 o 691 0.89 Yes Yes
2004LA12 O C H 2010-02-14.19780 1.000E-05 11:00:29.750 1.500E-01 0.500 F 0.139 -0.806 +06° 09' 04.50" 1.000E-01 0.500 F -0.002 0.481 21.4 V 0.70 0.43 o 691 1.88 Yes Yes
2004LA12 O C H 2010-02-14.21540 1.000E-05 11:00:28.770 1.500E-01 0.500 F 0.139 -1.125 +06° 09' 13.90" 1.000E-01 0.500 F -0.002 -0.329 21.3 V 0.70 0.33 o 691 2.35 Yes Yes
2004LA12 O C H 2010-02-14.23301 1.000E-05 11:00:27.830 1.500E-01 0.500 F 0.139 -0.809 +06° 09' 24.10" 1.000E-01 0.500 F -0.002 -0.345 o 691 1.76 Yes No
2005ED318 O C 2010-02-14.25228 1.000E-05 11:15:10.430 1.500E-01 0.500 F 0.047 -0.074 +11° 30' 23.90" 1.000E-01 0.500 F 0.127 -0.180 21.5 V 0.70 0.30 o 691 0.39 Yes Yes
2005ED318 O C 2010-02-14.26996 1.000E-05 11:15:09.910 1.500E-01 0.500 F 0.047 0.124 +11° 30' 33.70" 1.000E-01 0.500 F 0.127 -0.125 21.0 V 0.70 -0.20 o 691 0.35 Yes Yes
2005ED318 O C 2010-02-14.28766 1.000E-05 11:15:09.340 1.500E-01 0.500 F 0.047 -0.286 +11° 30' 43.20" 1.000E-01 0.500 F 0.127 -0.362 20.7 V 0.70 -0.50 o 691 0.92 Yes Yes
2010CJ171 O C 2010-02-14.29937 1.000E-05 11:41:20.590 1.500E-01 0.500 F 0.187 -0.459 +05° 04' 58.40" 1.000E-01 0.500 F 0.279 0.222 21.7 V 0.70 -0.13 o 691 1.04 Yes Yes
2010CJ171 O C 2010-02-14.31699 1.000E-05 11:41:20.830 1.500E-01 0.500 F 0.187 -0.472 +05° 05' 10.50" 1.000E-01 0.500 F 0.279 -0.100 21.5 V 0.70 -0.33 o 691 1.00 Yes Yes
2010CJ171 O C 2010-02-14.33459 1.000E-05 11:41:21.070 1.500E-01 0.500 F 0.187 -0.397 +05° 05' 23.10" 1.000E-01 0.500 F 0.279 0.093 21.7 V 0.70 -0.13 o 691 0.83 Yes Yes
1994CN2 O C 2010-02-14.42401 1.000E-05 12:26:23.180 1.500E-01 0.500 F 0.283 -0.262 -00° 27' 46.40" 1.000E-01 0.500 F 0.179 0.149 20.0 V 0.70 -0.03 o 691 0.60 Yes Yes
1994CN2 O C 2010-02-14.44161 1.000E-05 12:26:22.450 1.500E-01 0.500 F 0.283 -0.205 -00° 27' 40.60" 1.000E-01 0.500 F 0.179 0.244 20.1 V 0.70 0.07 o 691 0.64 Yes Yes
1994CN2 O C 2010-02-14.45922 1.000E-05 12:26:21.720 1.500E-01 0.500 F 0.283 -0.138 -00° 27' 35.10" 1.000E-01 0.500 F 0.179 0.031 20.1 V 0.70 0.07 o 691 0.28 Yes Yes
2006QW89 O C 2010-02-15.27656 1.000E-05 11:15:21.270 1.500E-01 0.500 F 0.164 0.154 +09° 52' 33.60" 1.000E-01 0.500 F 0.082 0.031 21.3 V 0.70 -0.32 o 691 0.34 Yes Yes
2001KP41 O C 2010-02-15.27656 1.000E-05 11:11:50.080 1.500E-01 0.500 F 0.225 -0.414 +08° 59' 52.60" 1.000E-01 0.500 F 0.121 0.253 20.6 V 0.70 0.08 o 691 0.97 Yes Yes
2006QW89 O C 2010-02-15.29418 1.000E-05 11:15:20.440 1.500E-01 0.500 F 0.164 -0.259 +09° 52' 43.20" 1.000E-01 0.500 F 0.082 -0.124 21.5 V 0.70 -0.11 o 691 0.62 Yes Yes
2001KP41 O C 2010-02-15.29418 1.000E-05 11:11:49.300 1.500E-01 0.500 F 0.225 -0.551 +08° 59' 59.40" 1.000E-01 0.500 F 0.121 -0.277 20.3 V 0.70 -0.22 o 691 1.24 Yes Yes
2006QW89 O C 2010-02-15.31527 1.000E-05 11:15:19.460 1.500E-01 0.500 F 0.164 -0.490 +09° 52' 55.20" 1.000E-01 0.500 F 0.082 0.209 21.6 V 0.70 -0.01 o 691 1.19 Yes Yes
2001KP41 O C 2010-02-15.31527 1.000E-05 11:11:48.370 1.500E-01 0.500 F 0.225 -0.635 +09° 00' 08.30" 1.000E-01 0.500 F 0.121 -0.146 20.4 V 0.70 -0.12 o 691 1.30 Yes Yes
2010CJ171 O C 2010-02-15.33534 1.000E-05 11:41:38.340 1.500E-01 0.500 F 0.210 -0.642 +05° 17' 24.40" 1.000E-01 0.500 F 0.304 -0.097 21.3 V 0.70 -0.46 o 691 1.34 Yes Yes
2010CJ171 O C 2010-02-15.35296 1.000E-05 11:41:38.530 1.500E-01 0.500 F 0.210 -0.766 +05° 17' 38.50" 1.000E-01 0.500 F 0.304 0.924 21.8 V 0.70 0.04 o 691 2.49 Yes Yes
2010CJ171 O C 2010-02-15.37057 1.000E-05 11:41:38.750 1.500E-01 0.500 F 0.210 -0.390 +05° 17' 50.80" 1.000E-01 0.500 F 0.304 0.155 21.4 V 0.70 -0.36 o 691 0.86 Yes Yes
2001RZ11 O C 2010-02-16.14782 1.000E-05 09:37:00.640 1.500E-01 0.500 F 0.052 -0.678 +16° 06' 00.10" 1.000E-01 0.500 F 0.292 0.202 20.9 V 0.70 0.00 o 691 1.42 Yes Yes
2001RZ11 O C 2010-02-16.16551 1.000E-05 09:36:58.960 1.500E-01 0.500 F 0.052 -0.485 +16° 05' 57.80" 1.000E-01 0.500 F 0.292 -0.440 20.9 V 0.70 0.00 o 691 1.31 Yes Yes
2001RZ11 O C 2010-02-16.18322 1.000E-05 09:36:57.260 1.500E-01 0.500 F 0.052 -0.521 +16° 05' 56.70" 1.000E-01 0.500 F 0.292 0.130 20.9 V 0.70 0.00 o 691 1.07 Yes Yes
1994CK1 O C 2010-02-16.27389 1.000E-05 11:17:16.530 1.500E-01 0.500 F 0.081 0.124 +02° 54' 57.70" 1.000E-01 0.500 F 0.089 0.222 21.7 V 0.70 0.31 o 691 0.51 Yes Yes
1994CK1 O C 2010-02-16.29152 1.000E-05 11:17:15.330 1.500E-01 0.500 F 0.081 -0.046 +02° 55' 03.80" 1.000E-01 0.500 F 0.089 0.103 21.0 V 0.70 -0.39 o 691 0.22 Yes Yes
1994CK1 O C 2010-02-16.30912 1.000E-05 11:17:14.090 1.500E-01 0.500 F 0.081 -0.818 +02° 55' 09.90" 1.000E-01 0.500 F 0.089 -0.005 21.4 V 0.70 0.01 o 691 1.63 Yes Yes
2008GE1 O C H 2010-02-16.43444 1.000E-05 12:45:56.070 1.500E-01 0.500 F 0.132 0.448 +04° 59' 42.30" 1.000E-01 0.500 F 0.093 -0.704 o 691 1.68 Yes No
2008GE1 O C H 2010-02-16.46969 1.000E-05 12:45:55.330 1.500E-01 0.500 F 0.132 -0.096 +05° 00' 12.20" 1.000E-01 0.500 F 0.093 -0.373 20.9 V 0.70 0.43 o 691 0.77 Yes Yes
2010DF1 O C 2010-02-17.21050 1.000E-05 10:40:49.980 1.500E-01 0.500 F 0.043 -0.488 +03° 46' 45.90" 1.000E-01 0.500 F 0.112 1.008 21.3 V 0.70 0.03 o 691 2.25 Yes Yes
2010DG1 O C 2010-02-17.21050 1.000E-05 10:44:58.810 1.500E-01 0.500 F 0.099 0.174 +04° 03' 11.40" 1.000E-01 0.500 F 0.151 0.107 20.6 V 0.70 -0.26 o 691 0.46 Yes Yes
2005TJ174 O C 2010-02-17.21296 1.000E-05 10:53:57.140 1.500E-01 0.500 F 0.114 -0.013 +03° 32' 44.60" 1.000E-01 0.500 F 0.008 -0.004 20.9 V 0.70 -0.24 o 691 0.03 Yes Yes
2001XT1 O C H 2010-02-17.21788 1.000E-05 11:06:18.800 1.500E-01 0.500 F 0.106 0.168 +03° 50' 55.60" 1.000E-01 0.500 F 0.061 0.024 21.7 V 0.70 -0.27 o 691 0.34 Yes Yes
2007CN26 O C t 2010-02-17.21788 1.000E-05 11:03:34.650 1.500E-01 0.500 F 0.118 0.123 +04° 00' 45.80" 1.000E-01 0.500 F 0.035 -0.590 21.4 V 0.70 0.01 o 691 1.21 Yes Yes
2007HD70 O C H 2010-02-17.22049 1.000E-05 10:52:00.230 1.500E-01 0.500 F 0.066 -0.761 +05° 14' 05.50" 1.000E-01 0.500 F 0.063 0.092 21.5 V 0.70 -0.24 o 691 1.76 Yes Yes
2010DF1 O C 2010-02-17.22811 1.000E-05 10:40:49.020 1.500E-01 0.500 F 0.043 -0.638 +03° 47' 31.00" 1.000E-01 0.500 F 0.112 -0.231 21.8 V 0.70 0.54 o 691 1.37 Yes Yes
2010DG1 O C 2010-02-17.22811 1.000E-05 10:44:53.030 1.500E-01 0.500 F 0.099 -0.616 +04° 03' 48.50" 1.000E-01 0.500 F 0.151 0.298 20.4 V 0.70 -0.47 o 691 1.53 Yes Yes
2005TJ174 O C 2010-02-17.23057 1.000E-05 10:53:56.010 1.500E-01 0.500 F 0.114 -1.090 +03° 32' 50.30" 1.000E-01 0.500 F 0.008 0.409 21.0 V 0.70 -0.14 o 691 2.33 Yes Yes
2001XT1 O C H 2010-02-17.23549 1.000E-05 11:06:17.200 1.500E-01 0.500 F 0.106 -0.539 +03° 51' 03.70" 1.000E-01 0.500 F 0.061 -0.262 o 691 1.20 Yes No
2007CN26 O C t 2010-02-17.23549 1.000E-05 11:03:33.170 1.500E-01 0.500 F 0.118 -0.334 +04° 01' 05.20" 1.000E-01 0.500 F 0.035 -0.582 o 691 1.34 Yes No
2007HD70 O C H 2010-02-17.23812 1.000E-05 10:51:59.470 1.500E-01 0.500 F 0.066 -0.044 +05° 14' 17.20" 1.000E-01 0.500 F 0.063 0.451 21.7 V 0.70 -0.04 o 691 0.96 Yes Yes
2010DF1 O C 2010-02-17.24574 1.000E-05 10:40:48.090 1.500E-01 0.500 F 0.043 -0.146 +03° 48' 17.80" 1.000E-01 0.500 F 0.112 0.144 21.3 V 0.70 0.04 o 691 0.41 Yes Yes
2010DG1 O C 2010-02-17.24574 1.000E-05 10:44:47.310 1.500E-01 0.500 F 0.099 -0.120 +04° 04' 25.10" 1.000E-01 0.500 F 0.151 0.080 20.6 V 0.70 -0.27 o 691 0.32 Yes Yes
2005TJ174 O C 2010-02-17.24820 1.000E-05 10:53:54.980 1.500E-01 0.500 F 0.114 -0.619 +03° 32' 55.30" 1.000E-01 0.500 F 0.008 0.116 21.1 V 0.70 -0.04 o 691 1.26 Yes Yes
2001XT1 O C H 2010-02-17.25312 1.000E-05 11:06:15.640 1.500E-01 0.500 F 0.106 -0.569 +03° 51' 12.10" 1.000E-01 0.500 F 0.061 -0.258 21.6 V 0.70 -0.37 o 691 1.25 Yes Yes
2007CN26 O C H 2010-02-17.25312 1.000E-05 11:03:31.690 1.500E-01 0.500 F 0.118 -0.630 +04° 01' 25.00" 1.000E-01 0.500 F 0.035 -0.199 o 691 1.33 Yes No
1998RO4 O C H 2010-02-17.26939 1.000E-05 11:09:43.640 1.500E-01 0.500 F 0.089 -0.110 +00° 42' 25.00" 1.000E-01 0.500 F 0.179 -0.268 o 691 0.58 Yes No
1998RO4 O C H 2010-02-17.28998 1.000E-05 11:09:42.510 1.500E-01 0.500 F 0.089 0.229 +00° 42' 32.50" 1.000E-01 0.500 F 0.179 -0.467 o 691 1.04 Yes No
1996HW1 O C H 2010-02-17.43746 1.000E-05 12:11:07.500 1.500E-01 0.500 F 0.205 -0.191 -02° 17' 05.00" 1.000E-01 0.500 F 0.167 -0.047 20.8 V 0.70 0.90 o 691 0.39 Yes Yes
1996HW1 O C H 2010-02-17.45509 1.000E-05 12:11:06.790 1.500E-01 0.500 F 0.205 0.026 -02° 16' 59.30" 1.000E-01 0.500 F 0.167 -0.651 o 691 1.30 Yes No
1996HW1 O C H 2010-02-17.47271 1.000E-05 12:11:06.040 1.500E-01 0.500 F 0.205 -0.370 -02° 16' 52.10" 1.000E-01 0.500 F 0.167 0.244 20.3 V 0.70 0.40 o 691 0.89 Yes Yes
2002NV16 O C t 2010-02-18.20637 1.000E-05 10:59:15.540 1.500E-01 0.500 F 0.154 0.064 +00° 57' 14.80" 1.000E-01 0.500 F 0.137 -0.267 21.8 V 0.70 0.46 o 691 0.55 Yes Yes
2002NV16 O C t 2010-02-18.22417 1.000E-05 10:59:13.480 1.500E-01 0.500 F 0.152 -0.435 +00° 57' 31.70" 1.000E-01 0.500 F 0.173 -0.098 21.1 V 0.70 -0.24 o 691 0.89 Yes Yes
2002NV16 O C t 2010-02-18.24197 1.000E-05 10:59:11.510 1.500E-01 0.500 F 0.152 0.566 +00° 57' 47.90" 1.000E-01 0.500 F 0.173 -0.599 21.1 V 0.70 -0.24 o 691 1.65 Yes Yes
2008EB9 O C 2010-02-18.31450 1.000E-05 11:45:01.580 1.500E-01 0.500 F 0.100 -0.882 +08° 03' 48.60" 1.000E-01 0.500 F 0.146 -0.471 o 691 2.02 Yes No
2008EB9 O C 2010-02-18.33210 1.000E-05 11:44:59.620 1.500E-01 0.500 F 0.100 0.000 +08° 03' 20.00" 1.000E-01 0.500 F 0.146 0.210 o 691 0.42 Yes No
2008EB9 O C 2010-02-18.34972 1.000E-05 11:44:57.570 1.500E-01 0.500 F 0.100 -0.326 +08° 02' 50.30" 1.000E-01 0.500 F 0.146 -0.137 o 691 0.71 Yes No
2002CY58 O C H 2010-02-19.15370 1.000E-05 09:52:57.700 1.500E-01 0.500 F 0.137 0.127 +18° 52' 26.20" 1.000E-01 0.500 F 0.374 -0.555 o 691 1.15 Yes No
2002CY58 O C H 2010-02-19.17142 1.000E-05 09:52:55.080 1.500E-01 0.500 F 0.137 0.518 +18° 52' 23.20" 1.000E-01 0.500 F 0.374 -1.443 o 691 3.09 Yes No
2010CV180 O C 2010-02-19.20394 1.000E-05 10:50:33.040 1.500E-01 0.500 F 0.021 -0.143 +13° 17' 19.30" 1.000E-01 0.500 F 0.102 0.049 o 691 0.30 Yes No
2010CV180 O C 2010-02-19.22167 1.000E-05 10:50:31.390 1.500E-01 0.500 F 0.021 -0.629 +13° 16' 59.20" 1.000E-01 0.500 F 0.102 0.069 o 691 1.28 Yes No
2010CV180 O C 2010-02-19.23938 1.000E-05 10:50:29.770 1.500E-01 0.500 F 0.021 -0.574 +13° 16' 39.10" 1.000E-01 0.500 F 0.102 0.105 o 691 1.18 Yes No
2001KP41 O C 2010-02-19.26763 1.000E-05 11:08:53.190 1.500E-01 0.500 F 0.225 -0.334 +09° 27' 59.50" 1.000E-01 0.500 F 0.121 0.195 o 691 0.78 Yes No
2001KP41 O C 2010-02-19.28525 1.000E-05 11:08:52.380 1.500E-01 0.500 F 0.225 -0.070 +09° 28' 07.10" 1.000E-01 0.500 F 0.121 0.189 o 691 0.40 Yes No
2001KP41 O C 2010-02-19.30287 1.000E-05 11:08:51.520 1.500E-01 0.500 F 0.225 -0.527 +09° 28' 14.60" 1.000E-01 0.500 F 0.121 0.087 o 691 1.07 Yes No
2001RZ11 O C t 2010-02-20.17351 1.000E-05 09:30:40.890 1.500E-01 0.500 F 0.018 -0.206 +15° 58' 44.80" 1.000E-01 0.500 F 0.265 -1.296 20.4 V 0.70 -0.60 o 691 2.63 Yes Yes
2001RZ11 O C t 2010-02-20.21242 1.000E-05 09:30:37.210 1.500E-01 0.500 F 0.018 -0.056 +15° 58' 41.30" 1.000E-01 0.500 F 0.265 -0.362 o 691 0.73 Yes No
2004LA12 O C 2010-02-20.24705 1.000E-05 10:54:55.720 1.500E-01 0.500 F 0.121 -1.922 +07° 08' 06.00" 1.000E-01 0.500 F 0.071 0.287 20.8 V 0.70 -0.07 o 691 3.87 No Yes
2004LA12 O C 2010-02-20.26468 1.000E-05 10:54:54.800 1.500E-01 0.500 F 0.121 -0.602 +07° 08' 16.00" 1.000E-01 0.500 F 0.071 -0.135 20.8 V 0.70 -0.07 o 691 1.24 Yes Yes
2004LA12 O C 2010-02-20.28231 1.000E-05 10:54:53.800 1.500E-01 0.500 F 0.121 -0.455 +07° 08' 26.40" 1.000E-01 0.500 F 0.071 -0.154 21.1 V 0.70 0.23 o 691 0.96 Yes Yes
2008EB9 O C H 2010-02-24.32863 1.000E-05 11:32:34.790 1.500E-01 0.500 F 0.151 -0.530 +05° 03' 22.00" 1.000E-01 0.500 F 0.275 -1.120 o 691 2.49 Yes No
2008EB9 O C H 2010-02-24.36383 1.000E-05 11:32:29.630 1.500E-01 0.500 F 0.151 -0.281 +05° 02' 14.90" 1.000E-01 0.500 F 0.275 -0.241 20.2 V 0.70 0.25 o 691 0.75 Yes Yes
1996FG3 O C 2010-03-04.20684 1.000E-05 09:54:59.540 1.500E-01 0.500 F 0.082 -0.922 +08° 12' 27.90" 1.000E-01 0.500 F 0.069 2.331 17.4 V 0.70 -0.44 o 691 5.01 No Yes
1996FG3 O C 2010-03-04.22320 1.000E-05 09:54:56.620 1.500E-01 0.500 F 0.082 -0.272 +08° 12' 39.20" 1.000E-01 0.500 F 0.069 0.316 17.7 V 0.70 -0.14 o 691 0.83 Yes Yes
1996FG3 O C 2010-03-04.23956 1.000E-05 09:54:53.640 1.500E-01 0.500 F 0.082 -0.462 +08° 12' 52.50" 1.000E-01 0.500 F 0.069 0.329 17.9 V 0.70 0.06 o 691 1.13 Yes Yes
1996FS1 O C t 2010-03-04.37714 1.000E-05 12:37:14.090 1.500E-01 0.500 F 0.109 0.800 -02° 09' 00.50" 1.000E-01 0.500 F 0.136 -0.603 20.1 V 0.70 0.43 o 691 2.02 Yes Yes
1996FS1 O C t 2010-03-04.39474 1.000E-05 12:37:08.540 1.500E-01 0.500 F 0.109 -1.522 -02° 07' 23.20" 1.000E-01 0.500 F 0.136 1.179 19.8 V 0.70 0.13 o 691 3.81 No Yes
1996FS1 O C t 2010-03-04.41235 1.000E-05 12:37:03.250 1.500E-01 0.500 F 0.109 0.054 -02° 05' 48.70" 1.000E-01 0.500 F 0.136 0.142 19.4 V 0.70 -0.27 o 691 0.31 Yes Yes
1999FP59 O C H 2010-03-04.43650 1.000E-05 12:40:40.650 1.500E-01 0.500 F 0.139 -1.120 -03° 01' 46.80" 1.000E-01 0.500 F 0.155 -0.128 20.4 V 0.70 -0.15 o 691 2.26 Yes Yes
1999FP59 O C H 2010-03-04.45413 1.000E-05 12:40:39.750 1.500E-01 0.500 F 0.139 0.054 -03° 01' 41.80" 1.000E-01 0.500 F 0.155 -0.469 20.2 V 0.70 -0.35 o 691 0.94 Yes Yes
1999FP59 O C H 2010-03-04.47175 1.000E-05 12:40:38.770 1.500E-01 0.500 F 0.139 -0.003 -03° 01' 35.10" 1.000E-01 0.500 F 0.155 0.885 20.4 V 0.70 -0.15 o 691 1.77 Yes Yes
2002CY58 O C H 2010-03-05.16629 1.000E-05 09:25:48.700 1.500E-01 0.500 F 0.085 -0.100 +17° 58' 27.40" 1.000E-01 0.500 F 0.233 -0.632 21.6 V 0.70 -0.27 o 691 1.29 Yes Yes
2002CY58 O C H 2010-03-05.18024 1.000E-05 09:25:47.450 1.500E-01 0.500 F 0.085 -0.071 +17° 58' 23.60" 1.000E-01 0.500 F 0.233 -0.393 21.4 V 0.70 -0.47 o 691 0.81 Yes Yes
Anza O C H 2010-03-05.31217 1.000E-05 12:39:33.370 1.500E-01 0.500 F 0.229 -0.635 -06° 28' 28.20" 1.000E-01 0.500 F 0.145 -1.499 21.6 V 0.70 -0.07 o 691 3.26 No Yes
Anza O C H 2010-03-05.34743 1.000E-05 12:39:31.790 1.500E-01 0.500 F 0.229 -0.004 -06° 28' 17.10" 1.000E-01 0.500 F 0.145 -0.785 21.8 V 0.70 0.13 o 691 1.57 Yes Yes
2005YU55 O C H 2010-03-05.42036 1.000E-05 13:40:52.180 1.500E-01 0.500 F 0.204 0.055 -09° 13' 02.40" 1.000E-01 0.500 F 0.093 -0.036 o 691 0.13 Yes No
2005YU55 O C H 2010-03-05.45568 1.000E-05 13:40:53.160 1.500E-01 0.500 F 0.204 -1.437 -09° 13' 08.30" 1.000E-01 0.500 F 0.093 -0.006 o 691 2.87 Yes No
2010DM56 O C H 2010-03-12.16305 1.000E-05 05:59:00.460 1.500E-01 0.500 F -0.072 -1.165 +47° 38' 41.60" 1.000E-01 0.500 F 0.291 -0.282 o 691 2.43 Yes No
2010DM56 O C H 2010-03-12.16664 1.000E-05 05:59:01.620 1.500E-01 0.500 F -0.072 -0.259 +47° 38' 32.50" 1.000E-01 0.500 F 0.291 -0.313 o 691 0.82 Yes No
2010DM56 O C H 2010-03-12.17640 1.000E-05 05:59:04.540 1.500E-01 0.500 F -0.072 -0.162 +47° 38' 09.00" 1.000E-01 0.500 F 0.291 0.862 21.5 V 0.70 0.28 o 691 1.77 Yes Yes
2000GE2 O C 2010-03-12.21815 1.000E-05 11:22:52.140 1.500E-01 0.500 F 0.069 -0.595 +04° 05' 32.90" 1.000E-01 0.500 F 0.197 -0.090 20.1 V 0.70 0.18 o 691 1.21 Yes Yes
2000GE2 O C 2010-03-12.23577 1.000E-05 11:22:49.560 1.500E-01 0.500 F 0.069 -0.596 +04° 05' 45.40" 1.000E-01 0.500 F 0.197 0.042 20.3 V 0.70 0.38 o 691 1.20 Yes Yes
2000GE2 O C 2010-03-12.25339 1.000E-05 11:22:46.980 1.500E-01 0.500 F 0.069 -0.489 +04° 05' 57.50" 1.000E-01 0.500 F 0.197 -0.220 20.1 V 0.70 0.18 o 691 1.07 Yes Yes
Anza O C H 2010-03-12.27291 1.000E-05 12:34:01.450 1.500E-01 0.500 F 0.224 -0.756 -05° 51' 35.80" 1.000E-01 0.500 F 0.122 -0.005 21.6 V 0.70 0.08 o 691 1.52 Yes Yes
Anza O C H 2010-03-12.29052 1.000E-05 12:34:00.570 1.500E-01 0.500 F 0.224 -0.394 -05° 51' 30.30" 1.000E-01 0.500 F 0.122 -0.451 21.2 V 0.70 -0.32 o 691 1.20 Yes Yes
Anza O C H 2010-03-12.30812 1.000E-05 12:33:59.700 1.500E-01 0.500 F 0.224 0.129 -05° 51' 23.90" 1.000E-01 0.500 F 0.122 0.002 o 691 0.25 Yes No
2004FE31 O C 2010-03-12.38763 1.000E-05 13:49:59.690 1.500E-01 0.500 F 0.143 -1.148 -14° 16' 47.70" 1.000E-01 0.500 F 0.165 0.187 21.4 V 0.70 0.32 o 691 2.33 Yes Yes
2004FE31 O C 2010-03-12.40534 1.000E-05 13:49:59.030 1.500E-01 0.500 F 0.143 -0.551 -14° 16' 39.50" 1.000E-01 0.500 F 0.165 0.109 21.0 V 0.70 -0.07 o 691 1.12 Yes Yes
2004FE31 O C 2010-03-12.42652 1.000E-05 13:49:58.180 1.500E-01 0.500 F 0.143 -0.699 -14° 16' 30.00" 1.000E-01 0.500 F 0.165 -0.322 21.1 V 0.70 0.03 o 691 1.54 Yes Yes
Toutatis O C H 2010-03-12.44356 1.000E-05 14:11:06.340 1.500E-01 0.500 F 0.326 0.208 -12° 37' 14.00" 1.000E-01 0.500 F 0.100 0.140 21.2 V 0.70 0.06 o 691 0.50 Yes Yes
Toutatis O C H 2010-03-12.46126 1.000E-05 14:11:05.700 1.500E-01 0.500 F 0.326 -0.455 -12° 37' 10.60" 1.000E-01 0.500 F 0.100 0.398 21.5 V 0.70 0.36 o 691 1.21 Yes Yes
Toutatis O C H 2010-03-12.47492 1.000E-05 14:11:05.250 1.500E-01 0.500 F 0.326 -0.324 -12° 37' 09.30" 1.000E-01 0.500 F 0.100 -0.733 21.2 V 0.70 0.06 o 691 1.60 Yes Yes

[1-200] [201-400] [401-600] [601-800] [801-1000] [1001-1200] [1201-1400] [1401-1600] [1601-1800] [1801-2000] [2001-2200] [2201-2400] [2401-2600] [2601-2800] [2801-3000] [3001-3200] [3201-3400] [3401-3600] [3601-3800] [3801-4000] [4001-4200] [4201-4400] [4401-4600] [4601-4800] [4801-5000] [5001-5200] [5201-5400] [5401-5600] [5601-5800] [5801-6000] [6001-6200] [6201-6400] [6401-6600] [6601-6800] [6801-7000] [7001-7200] [7201-7400] [7401-7600] [7601-7800] [7801-8000] [8001-8200] [8201-8400] [8401-8600] [8601-8800] [8801-9000] [9001-9200] [9201-9400] [9401-9600] [9601-9800] [9801-10000] [10001-10200] [10201-10400] [10401-10600] [10601-10800] [10801-11000] [11001-11200] [11201-11400] [11401-11600] [11601-11800] [11801-12000] [12001-12200] [12201-12400] [12401-12600] [12601-12800] [12801-13000] [13001-13200] [13201-13400] [13401-13600] [13601-13800] [13801-14000] [14001-14200] [14201-14400] [14401-14600] [14601-14800] [14801-15000] [15001-15200] [15201-15400] [15401-15600] [15601-15800] [15801-16000] [16001-16200] [16201-16400] [16401-16600] [16601-16800] [16801-17000] [17001-17200] [17201-17400] [17401-17600] [17601-17800] [17801-18000] [18001-18200] [18201-18400] [18401-18600] [18601-18800] [18801-19000] [19001-19200] [19201-19400] [19401-19600] [19601-19800] [19801-20000] [20001-20200] [20201-20400] [20401-20600] [20601-20800] [20801-21000] [21001-21200] [21201-21400] [21401-21600] [21601-21800] [21801-22000] [22001-22200] [22201-22400] [22401-22600] [22601-22800] [22801-23000] [23001-23200] [23201-23400] [23401-23600] [23601-23800] [23801-24000] [24001-24200] [24201-24400] [24401-24600] [24601-24800] [24801-25000] [25001-25200] [25201-25400] [25401-25600] [25601-25800] [25801-26000] [26001-26200] [26201-26400] [26401-26600] [26601-26800] [26801-27000] [27001-27200] [27201-27400] [27401-27600] [27601-27800] [27801-28000] [28001-28200] [28201-28400] [28401-28600] [28601-28800] [28801-29000] [29001-29200] [29201-29400] [29401-29600] [29601-29800] [29801-30000] [30001-30200] [30201-30400] [30401-30600] [30601-30800] [30801-31000] [31001-31200] [31201-31400] [31401-31600] [31601-31800] [31801-32000] [32001-32200] [32201-32400] [32401-32600] [32601-32800] [32801-33000] [33001-33200] [33201-33400] [33401-33600] [33601-33800] [33801-34000] [34001-34200] [34201-34400] [34401-34600] [34601-34800] [34801-35000] [35001-35200] [35201-35400] [35401-35600] [35601-35800] [35801-36000] [36001-36200] [36201-36400] [36401-36600] [36601-36800] [36801-37000] [37001-37200] [37201-37400] [37401-37600] [37601-37800] [37801-38000] [38001-38200] [38201-38400] [38401-38600] [38601-38800] [38801-39000] [39001-39200] [39201-39400] [39401-39600] [39601-39800] [39801-40000] [40001-40200] [40201-40400] [40401-40600] [40601-40800] [40801-41000] [41001-41200] [41201-41400] [41401-41600] [41601-41800] [41801-42000] [42001-42200] [42201-42400] [42401-42600] [42601-42800] [42801-43000] [43001-43200] [43201-43400] [43401-43600] [43601-43800] [43801-44000] [44001-44200] [44201-44400] [44401-44600] [44601-44800] [44801-45000] [45001-45200] [45201-45400] [45401-45600] [45601-45800] [45801-46000] [46001-46200] [46201-46400] [46401-46600] [46601-46800] [46801-47000] [47001-47200] [47201-47400] [47401-47600] [47601-47800] [47801-48000] [48001-48200] [48201-48400] [48401-48600] [48601-48800] [48801-49000] [49001-49200] [49201-49400] [49401-49600] [49601-49800] [49801-50000] [50001-50200] [50201-50388]